Terminal Aerodrome Forecast
Issued by NWS

Home | Current Version | Previous Version | Text Only | Print | Product List | Glossary Off
Versions: 1 2 3 4 5 6 7 8 9 10 11 12 13 14 15 16 17

995
FTUS43 KGRB 070526
TAFATW
TAF
KATW 070526Z 0706/0806 20008KT P6SM SCT040 BKN080
      TEMPO 0706/0710 5SM -SN BKN040
     FM071200 22011G15KT P6SM BKN060 OVC090
     FM080000 24007KT P6SM SCT025 BKN040=

USA.gov is the U.S. government's official web portal to all federal, state and local government web resources and services.